sensor_id;sensor_type;location;lat;lon;timestamp;P1;durP1;ratioP1;P2;durP2;ratioP2
22026;SDS011;11177;50.966;10.070;2023-04-08T00:00:47;5.63;;;3.90;;
22026;SDS011;11177;50.966;10.070;2023-04-08T00:03:15;9.77;;;4.03;;
22026;SDS011;11177;50.966;10.070;2023-04-08T00:05:44;6.68;;;3.95;;
22026;SDS011;11177;50.966;10.070;2023-04-08T00:08:11;5.68;;;3.90;;
22026;SDS011;11177;50.966;10.070;2023-04-08T00:10:39;5.65;;;3.88;;
22026;SDS011;11177;50.966;10.070;2023-04-08T00:13:06;5.25;;;4.03;;
22026;SDS011;11177;50.966;10.070;2023-04-08T00:15:35;8.10;;;4.18;;
22026;SDS011;11177;50.966;10.070;2023-04-08T00:18:02;6.30;;;3.75;;
22026;SDS011;11177;50.966;10.070;2023-04-08T00:20:29;9.10;;;4.38;;
22026;SDS011;11177;50.966;10.070;2023-04-08T00:22:56;5.68;;;3.83;;
22026;SDS011;11177;50.966;10.070;2023-04-08T00:25:23;6.50;;;4.05;;
22026;SDS011;11177;50.966;10.070;2023-04-08T00:27:51;5.38;;;4.07;;
22026;SDS011;11177;50.966;10.070;2023-04-08T00:30:18;5.85;;;3.92;;
22026;SDS011;11177;50.966;10.070;2023-04-08T00:32:45;6.75;;;4.10;;
22026;SDS011;11177;50.966;10.070;2023-04-08T00:35:12;6.93;;;4.63;;
22026;SDS011;11177;50.966;10.070;2023-04-08T00:37:39;6.78;;;4.28;;
22026;SDS011;11177;50.966;10.070;2023-04-08T00:40:07;9.02;;;4.35;;
22026;SDS011;11177;50.966;10.070;2023-04-08T00:42:34;7.03;;;4.45;;
22026;SDS011;11177;50.966;10.070;2023-04-08T00:45:02;7.93;;;4.47;;
22026;SDS011;11177;50.966;10.070;2023-04-08T00:47:29;7.22;;;4.55;;
22026;SDS011;11177;50.966;10.070;2023-04-08T00:49:56;7.32;;;4.53;;
22026;SDS011;11177;50.966;10.070;2023-04-08T00:52:24;8.30;;;4.57;;
22026;SDS011;11177;50.966;10.070;2023-04-08T00:54:51;6.57;;;4.35;;
22026;SDS011;11177;50.966;10.070;2023-04-08T00:57:18;6.45;;;4.35;;
22026;SDS011;11177;50.966;10.070;2023-04-08T00:59:45;5.95;;;4.40;;
22026;SDS011;11177;50.966;10.070;2023-04-08T01:05:44;5.97;;;4.20;;
22026;SDS011;11177;50.966;10.070;2023-04-08T01:08:19;5.88;;;4.20;;
22026;SDS011;11177;50.966;10.070;2023-04-08T01:10:47;6.10;;;4.35;;
22026;SDS011;11177;50.966;10.070;2023-04-08T01:13:17;5.55;;;4.13;;
22026;SDS011;11177;50.966;10.070;2023-04-08T01:15:44;8.30;;;4.10;;
22026;SDS011;11177;50.966;10.070;2023-04-08T01:18:12;6.32;;;4.03;;
22026;SDS011;11177;50.966;10.070;2023-04-08T01:20:40;5.45;;;4.03;;
22026;SDS011;11177;50.966;10.070;2023-04-08T01:26:20;5.47;;;4.18;;
22026;SDS011;11177;50.966;10.070;2023-04-08T01:28:49;6.40;;;4.10;;
22026;SDS011;11177;50.966;10.070;2023-04-08T01:31:18;8.40;;;4.63;;
22026;SDS011;11177;50.966;10.070;2023-04-08T01:33:45;7.28;;;4.43;;
22026;SDS011;11177;50.966;10.070;2023-04-08T01:36:13;6.75;;;4.53;;
22026;SDS011;11177;50.966;10.070;2023-04-08T01:38:41;6.05;;;4.35;;
22026;SDS011;11177;50.966;10.070;2023-04-08T01:41:08;8.48;;;4.65;;
22026;SDS011;11177;50.966;10.070;2023-04-08T01:43:37;6.45;;;4.72;;
22026;SDS011;11177;50.966;10.070;2023-04-08T01:46:06;6.97;;;4.70;;
22026;SDS011;11177;50.966;10.070;2023-04-08T01:48:34;6.85;;;4.18;;
22026;SDS011;11177;50.966;10.070;2023-04-08T01:51:01;5.60;;;4.22;;
22026;SDS011;11177;50.966;10.070;2023-04-08T01:53:30;6.32;;;4.28;;
22026;SDS011;11177;50.966;10.070;2023-04-08T01:56:01;7.68;;;4.20;;
22026;SDS011;11177;50.966;10.070;2023-04-08T01:58:31;7.68;;;4.68;;
22026;SDS011;11177;50.966;10.070;2023-04-08T02:01:09;8.02;;;4.43;;
22026;SDS011;11177;50.966;10.070;2023-04-08T02:03:37;8.38;;;4.65;;
22026;SDS011;11177;50.966;10.070;2023-04-08T02:06:07;8.80;;;4.57;;
22026;SDS011;11177;50.966;10.070;2023-04-08T02:08:34;6.35;;;4.60;;
22026;SDS011;11177;50.966;10.070;2023-04-08T02:11:04;7.60;;;4.78;;
22026;SDS011;11177;50.966;10.070;2023-04-08T02:13:31;6.78;;;4.55;;
22026;SDS011;11177;50.966;10.070;2023-04-08T02:16:09;9.63;;;4.75;;
22026;SDS011;11177;50.966;10.070;2023-04-08T02:18:42;11.02;;;4.50;;
22026;SDS011;11177;50.966;10.070;2023-04-08T02:21:12;7.32;;;4.30;;
22026;SDS011;11177;50.966;10.070;2023-04-08T02:23:41;6.75;;;4.18;;
22026;SDS011;11177;50.966;10.070;2023-04-08T02:26:14;7.72;;;4.50;;
22026;SDS011;11177;50.966;10.070;2023-04-08T02:28:42;7.65;;;4.80;;
22026;SDS011;11177;50.966;10.070;2023-04-08T02:31:11;7.03;;;4.22;;
22026;SDS011;11177;50.966;10.070;2023-04-08T02:33:39;6.45;;;4.40;;
22026;SDS011;11177;50.966;10.070;2023-04-08T02:36:06;5.18;;;4.00;;
22026;SDS011;11177;50.966;10.070;2023-04-08T02:38:33;5.88;;;4.00;;
22026;SDS011;11177;50.966;10.070;2023-04-08T02:41:00;6.20;;;4.43;;
22026;SDS011;11177;50.966;10.070;2023-04-08T02:43:27;5.75;;;4.60;;
22026;SDS011;11177;50.966;10.070;2023-04-08T02:45:58;5.25;;;4.50;;
22026;SDS011;11177;50.966;10.070;2023-04-08T02:48:26;7.57;;;4.70;;
22026;SDS011;11177;50.966;10.070;2023-04-08T02:50:52;10.68;;;5.38;;
22026;SDS011;11177;50.966;10.070;2023-04-08T02:53:20;6.28;;;4.50;;
22026;SDS011;11177;50.966;10.070;2023-04-08T02:55:47;5.90;;;4.55;;
22026;SDS011;11177;50.966;10.070;2023-04-08T02:58:14;6.75;;;4.85;;
22026;SDS011;11177;50.966;10.070;2023-04-08T03:00:41;6.38;;;4.43;;
22026;SDS011;11177;50.966;10.070;2023-04-08T03:03:08;7.88;;;4.90;;
22026;SDS011;11177;50.966;10.070;2023-04-08T03:05:35;6.03;;;4.55;;
22026;SDS011;11177;50.966;10.070;2023-04-08T03:08:02;7.68;;;4.60;;
22026;SDS011;11177;50.966;10.070;2023-04-08T03:10:29;7.28;;;4.30;;
22026;SDS011;11177;50.966;10.070;2023-04-08T03:12:56;8.35;;;4.22;;
22026;SDS011;11177;50.966;10.070;2023-04-08T03:15:23;6.05;;;4.38;;
22026;SDS011;11177;50.966;10.070;2023-04-08T03:17:49;6.88;;;4.20;;
22026;SDS011;11177;50.966;10.070;2023-04-08T03:20:16;6.57;;;4.15;;
22026;SDS011;11177;50.966;10.070;2023-04-08T03:22:43;6.80;;;4.40;;
22026;SDS011;11177;50.966;10.070;2023-04-08T03:25:10;6.13;;;4.00;;
22026;SDS011;11177;50.966;10.070;2023-04-08T03:27:37;5.30;;;4.07;;
22026;SDS011;11177;50.966;10.070;2023-04-08T03:30:04;6.65;;;4.40;;
22026;SDS011;11177;50.966;10.070;2023-04-08T03:32:31;6.00;;;4.20;;
22026;SDS011;11177;50.966;10.070;2023-04-08T03:34:58;6.53;;;4.30;;
22026;SDS011;11177;50.966;10.070;2023-04-08T03:37:25;6.40;;;4.30;;
22026;SDS011;11177;50.966;10.070;2023-04-08T03:39:53;5.75;;;3.92;;
22026;SDS011;11177;50.966;10.070;2023-04-08T03:42:21;5.60;;;3.88;;
22026;SDS011;11177;50.966;10.070;2023-04-08T03:44:48;8.90;;;4.18;;
22026;SDS011;11177;50.966;10.070;2023-04-08T03:47:14;7.22;;;4.22;;
22026;SDS011;11177;50.966;10.070;2023-04-08T03:49:41;6.30;;;4.28;;
22026;SDS011;11177;50.966;10.070;2023-04-08T03:52:08;6.15;;;4.20;;
22026;SDS011;11177;50.966;10.070;2023-04-08T03:54:35;8.18;;;4.38;;
22026;SDS011;11177;50.966;10.070;2023-04-08T03:57:01;9.93;;;4.50;;
22026;SDS011;11177;50.966;10.070;2023-04-08T03:59:28;6.45;;;4.47;;
22026;SDS011;11177;50.966;10.070;2023-04-08T04:01:55;6.15;;;4.10;;
22026;SDS011;11177;50.966;10.070;2023-04-08T04:04:22;7.45;;;3.92;;
22026;SDS011;11177;50.966;10.070;2023-04-08T04:06:49;7.22;;;4.70;;
22026;SDS011;11177;50.966;10.070;2023-04-08T04:09:16;6.50;;;4.32;;
22026;SDS011;11177;50.966;10.070;2023-04-08T04:11:43;6.57;;;4.32;;
22026;SDS011;11177;50.966;10.070;2023-04-08T04:14:09;5.07;;;3.78;;
22026;SDS011;11177;50.966;10.070;2023-04-08T04:16:36;6.15;;;4.28;;
22026;SDS011;11177;50.966;10.070;2023-04-08T04:19:03;5.60;;;4.20;;
22026;SDS011;11177;50.966;10.070;2023-04-08T04:21:30;7.45;;;4.40;;
22026;SDS011;11177;50.966;10.070;2023-04-08T04:23:57;6.78;;;4.38;;
22026;SDS011;11177;50.966;10.070;2023-04-08T04:26:24;6.82;;;4.25;;
22026;SDS011;11177;50.966;10.070;2023-04-08T04:28:51;7.35;;;4.28;;
22026;SDS011;11177;50.966;10.070;2023-04-08T04:31:18;6.72;;;4.63;;
22026;SDS011;11177;50.966;10.070;2023-04-08T04:33:47;6.18;;;4.70;;
22026;SDS011;11177;50.966;10.070;2023-04-08T04:36:14;5.72;;;4.70;;
22026;SDS011;11177;50.966;10.070;2023-04-08T04:38:41;6.68;;;4.90;;
22026;SDS011;11177;50.966;10.070;2023-04-08T04:41:08;6.45;;;4.57;;
22026;SDS011;11177;50.966;10.070;2023-04-08T04:43:36;6.25;;;4.50;;
22026;SDS011;11177;50.966;10.070;2023-04-08T04:46:03;6.75;;;4.18;;
22026;SDS011;11177;50.966;10.070;2023-04-08T04:48:32;5.40;;;4.30;;
22026;SDS011;11177;50.966;10.070;2023-04-08T04:50:59;7.97;;;4.95;;
22026;SDS011;11177;50.966;10.070;2023-04-08T04:53:30;7.28;;;4.60;;
22026;SDS011;11177;50.966;10.070;2023-04-08T04:55:57;6.10;;;4.40;;
22026;SDS011;11177;50.966;10.070;2023-04-08T04:58:24;6.45;;;4.38;;
22026;SDS011;11177;50.966;10.070;2023-04-08T05:00:50;6.40;;;4.40;;
22026;SDS011;11177;50.966;10.070;2023-04-08T05:03:17;6.38;;;4.25;;
22026;SDS011;11177;50.966;10.070;2023-04-08T05:05:48;5.65;;;4.28;;
22026;SDS011;11177;50.966;10.070;2023-04-08T05:08:16;6.35;;;4.97;;
22026;SDS011;11177;50.966;10.070;2023-04-08T05:10:43;5.35;;;4.15;;
22026;SDS011;11177;50.966;10.070;2023-04-08T05:13:10;8.23;;;4.65;;
22026;SDS011;11177;50.966;10.070;2023-04-08T05:15:36;6.60;;;4.88;;
22026;SDS011;11177;50.966;10.070;2023-04-08T05:18:03;8.90;;;4.82;;
22026;SDS011;11177;50.966;10.070;2023-04-08T05:20:30;7.53;;;4.78;;
22026;SDS011;11177;50.966;10.070;2023-04-08T05:22:57;6.88;;;5.00;;
22026;SDS011;11177;50.966;10.070;2023-04-08T05:25:24;6.78;;;5.10;;
22026;SDS011;11177;50.966;10.070;2023-04-08T05:27:51;8.00;;;5.40;;
22026;SDS011;11177;50.966;10.070;2023-04-08T05:30:18;7.50;;;5.03;;
22026;SDS011;11177;50.966;10.070;2023-04-08T05:32:45;6.68;;;5.15;;
22026;SDS011;11177;50.966;10.070;2023-04-08T05:35:12;7.75;;;5.60;;
22026;SDS011;11177;50.966;10.070;2023-04-08T05:37:39;8.20;;;5.68;;
22026;SDS011;11177;50.966;10.070;2023-04-08T05:40:06;7.82;;;5.55;;
22026;SDS011;11177;50.966;10.070;2023-04-08T05:42:33;8.15;;;5.72;;
22026;SDS011;11177;50.966;10.070;2023-04-08T05:45:00;9.23;;;6.05;;
22026;SDS011;11177;50.966;10.070;2023-04-08T05:47:27;8.82;;;6.13;;
22026;SDS011;11177;50.966;10.070;2023-04-08T05:49:54;8.10;;;5.72;;
22026;SDS011;11177;50.966;10.070;2023-04-08T05:52:20;12.70;;;6.22;;
22026;SDS011;11177;50.966;10.070;2023-04-08T05:54:47;8.98;;;5.95;;
22026;SDS011;11177;50.966;10.070;2023-04-08T05:57:14;8.38;;;6.03;;
22026;SDS011;11177;50.966;10.070;2023-04-08T05:59:42;10.77;;;6.60;;
22026;SDS011;11177;50.966;10.070;2023-04-08T06:02:08;8.93;;;6.82;;
22026;SDS011;11177;50.966;10.070;2023-04-08T06:04:36;9.98;;;7.07;;
22026;SDS011;11177;50.966;10.070;2023-04-08T06:07:03;11.55;;;7.25;;
22026;SDS011;11177;50.966;10.070;2023-04-08T06:09:33;9.45;;;6.55;;
22026;SDS011;11177;50.966;10.070;2023-04-08T06:12:01;10.75;;;7.53;;
22026;SDS011;11177;50.966;10.070;2023-04-08T06:14:28;10.30;;;6.95;;
22026;SDS011;11177;50.966;10.070;2023-04-08T06:16:55;11.40;;;6.57;;
22026;SDS011;11177;50.966;10.070;2023-04-08T06:19:23;10.07;;;7.07;;
22026;SDS011;11177;50.966;10.070;2023-04-08T06:21:50;11.10;;;7.20;;
22026;SDS011;11177;50.966;10.070;2023-04-08T06:24:17;11.63;;;7.63;;
22026;SDS011;11177;50.966;10.070;2023-04-08T06:26:44;9.95;;;6.75;;
22026;SDS011;11177;50.966;10.070;2023-04-08T06:29:11;9.15;;;6.55;;
22026;SDS011;11177;50.966;10.070;2023-04-08T06:31:37;11.00;;;6.90;;
22026;SDS011;11177;50.966;10.070;2023-04-08T06:34:04;9.45;;;7.30;;
22026;SDS011;11177;50.966;10.070;2023-04-08T06:36:31;11.15;;;7.38;;
22026;SDS011;11177;50.966;10.070;2023-04-08T06:38:58;12.90;;;7.38;;
22026;SDS011;11177;50.966;10.070;2023-04-08T06:41:25;11.13;;;7.15;;
22026;SDS011;11177;50.966;10.070;2023-04-08T06:43:52;11.52;;;7.93;;
22026;SDS011;11177;50.966;10.070;2023-04-08T06:46:18;10.77;;;7.40;;
22026;SDS011;11177;50.966;10.070;2023-04-08T06:48:46;10.73;;;7.68;;
22026;SDS011;11177;50.966;10.070;2023-04-08T06:51:13;9.35;;;7.15;;
22026;SDS011;11177;50.966;10.070;2023-04-08T06:53:40;10.00;;;7.05;;
22026;SDS011;11177;50.966;10.070;2023-04-08T06:56:07;11.07;;;7.75;;
22026;SDS011;11177;50.966;10.070;2023-04-08T06:58:33;11.90;;;7.68;;
22026;SDS011;11177;50.966;10.070;2023-04-08T07:01:00;12.68;;;7.78;;
22026;SDS011;11177;50.966;10.070;2023-04-08T07:03:28;12.63;;;8.82;;
22026;SDS011;11177;50.966;10.070;2023-04-08T07:05:55;11.88;;;8.00;;
22026;SDS011;11177;50.966;10.070;2023-04-08T07:08:22;12.65;;;8.35;;
22026;SDS011;11177;50.966;10.070;2023-04-08T07:10:50;11.35;;;8.55;;
22026;SDS011;11177;50.966;10.070;2023-04-08T07:13:18;16.27;;;10.88;;
22026;SDS011;11177;50.966;10.070;2023-04-08T07:15:44;13.27;;;9.32;;
22026;SDS011;11177;50.966;10.070;2023-04-08T07:18:11;14.48;;;9.65;;
22026;SDS011;11177;50.966;10.070;2023-04-08T07:20:39;13.63;;;9.32;;
22026;SDS011;11177;50.966;10.070;2023-04-08T07:23:07;14.45;;;9.18;;
22026;SDS011;11177;50.966;10.070;2023-04-08T07:25:35;14.13;;;9.45;;
22026;SDS011;11177;50.966;10.070;2023-04-08T07:28:02;12.60;;;8.13;;
22026;SDS011;11177;50.966;10.070;2023-04-08T07:30:29;13.20;;;9.07;;
22026;SDS011;11177;50.966;10.070;2023-04-08T07:32:56;14.27;;;9.02;;
22026;SDS011;11177;50.966;10.070;2023-04-08T07:35:26;14.30;;;9.40;;
22026;SDS011;11177;50.966;10.070;2023-04-08T07:37:53;15.00;;;10.02;;
22026;SDS011;11177;50.966;10.070;2023-04-08T07:40:20;15.50;;;8.65;;
22026;SDS011;11177;50.966;10.070;2023-04-08T07:42:47;12.55;;;8.80;;
22026;SDS011;11177;50.966;10.070;2023-04-08T07:45:14;12.52;;;8.60;;
22026;SDS011;11177;50.966;10.070;2023-04-08T07:47:42;15.32;;;8.52;;
22026;SDS011;11177;50.966;10.070;2023-04-08T07:50:09;14.60;;;9.32;;
22026;SDS011;11177;50.966;10.070;2023-04-08T07:52:37;14.93;;;9.13;;
22026;SDS011;11177;50.966;10.070;2023-04-08T07:55:04;15.38;;;9.45;;
22026;SDS011;11177;50.966;10.070;2023-04-08T07:57:31;15.98;;;9.82;;
22026;SDS011;11177;50.966;10.070;2023-04-08T07:59:58;14.75;;;9.88;;
22026;SDS011;11177;50.966;10.070;2023-04-08T08:02:25;17.33;;;10.38;;
22026;SDS011;11177;50.966;10.070;2023-04-08T08:04:52;14.82;;;10.10;;
22026;SDS011;11177;50.966;10.070;2023-04-08T08:07:19;16.83;;;10.13;;
22026;SDS011;11177;50.966;10.070;2023-04-08T08:09:46;16.52;;;10.88;;
22026;SDS011;11177;50.966;10.070;2023-04-08T08:12:13;15.60;;;9.93;;
22026;SDS011;11177;50.966;10.070;2023-04-08T08:14:39;15.98;;;10.32;;
22026;SDS011;11177;50.966;10.070;2023-04-08T08:17:06;16.42;;;10.75;;
22026;SDS011;11177;50.966;10.070;2023-04-08T08:19:33;15.90;;;10.73;;
22026;SDS011;11177;50.966;10.070;2023-04-08T08:22:00;19.98;;;11.15;;
22026;SDS011;11177;50.966;10.070;2023-04-08T08:24:26;18.40;;;10.60;;
22026;SDS011;11177;50.966;10.070;2023-04-08T08:26:53;23.20;;;11.77;;
22026;SDS011;11177;50.966;10.070;2023-04-08T08:29:21;15.27;;;10.35;;
22026;SDS011;11177;50.966;10.070;2023-04-08T08:31:47;14.85;;;10.27;;
22026;SDS011;11177;50.966;10.070;2023-04-08T08:34:14;15.88;;;9.93;;
22026;SDS011;11177;50.966;10.070;2023-04-08T08:36:42;16.40;;;9.50;;
22026;SDS011;11177;50.966;10.070;2023-04-08T08:39:08;15.50;;;10.15;;
22026;SDS011;11177;50.966;10.070;2023-04-08T08:41:35;16.48;;;10.38;;
22026;SDS011;11177;50.966;10.070;2023-04-08T08:44:06;18.90;;;10.32;;
22026;SDS011;11177;50.966;10.070;2023-04-08T08:46:44;15.55;;;9.75;;
22026;SDS011;11177;50.966;10.070;2023-04-08T08:49:12;15.57;;;9.68;;
22026;SDS011;11177;50.966;10.070;2023-04-08T08:51:39;14.00;;;9.55;;
22026;SDS011;11177;50.966;10.070;2023-04-08T08:54:07;14.15;;;8.90;;
22026;SDS011;11177;50.966;10.070;2023-04-08T08:56:34;16.60;;;10.20;;
22026;SDS011;11177;50.966;10.070;2023-04-08T08:59:01;12.90;;;9.57;;
22026;SDS011;11177;50.966;10.070;2023-04-08T09:01:35;12.93;;;9.10;;
22026;SDS011;11177;50.966;10.070;2023-04-08T09:04:07;14.98;;;8.93;;
22026;SDS011;11177;50.966;10.070;2023-04-08T09:06:43;21.08;;;9.32;;
22026;SDS011;11177;50.966;10.070;2023-04-08T09:09:12;19.80;;;8.77;;
22026;SDS011;11177;50.966;10.070;2023-04-08T09:11:43;22.15;;;9.63;;
22026;SDS011;11177;50.966;10.070;2023-04-08T09:14:21;14.43;;;8.70;;
22026;SDS011;11177;50.966;10.070;2023-04-08T09:16:51;13.40;;;8.85;;
22026;SDS011;11177;50.966;10.070;2023-04-08T09:19:18;13.80;;;8.82;;
22026;SDS011;11177;50.966;10.070;2023-04-08T09:21:47;17.90;;;9.70;;
22026;SDS011;11177;50.966;10.070;2023-04-08T09:24:30;15.73;;;9.63;;
22026;SDS011;11177;50.966;10.070;2023-04-08T09:26:57;12.98;;;9.18;;
22026;SDS011;11177;50.966;10.070;2023-04-08T09:29:24;13.57;;;8.90;;
22026;SDS011;11177;50.966;10.070;2023-04-08T09:32:00;11.40;;;8.07;;
22026;SDS011;11177;50.966;10.070;2023-04-08T09:34:29;12.07;;;7.97;;
22026;SDS011;11177;50.966;10.070;2023-04-08T09:36:57;11.93;;;7.50;;
22026;SDS011;11177;50.966;10.070;2023-04-08T09:39:24;11.40;;;7.55;;
22026;SDS011;11177;50.966;10.070;2023-04-08T09:41:51;11.05;;;7.65;;
22026;SDS011;11177;50.966;10.070;2023-04-08T09:44:19;13.50;;;7.80;;
22026;SDS011;11177;50.966;10.070;2023-04-08T09:49:39;14.32;;;7.63;;
22026;SDS011;11177;50.966;10.070;2023-04-08T09:52:10;12.57;;;8.57;;
22026;SDS011;11177;50.966;10.070;2023-04-08T09:54:54;12.18;;;7.88;;
22026;SDS011;11177;50.966;10.070;2023-04-08T09:57:35;11.07;;;7.80;;
22026;SDS011;11177;50.966;10.070;2023-04-08T10:00:23;11.38;;;7.80;;
22026;SDS011;11177;50.966;10.070;2023-04-08T10:06:10;11.25;;;7.97;;
22026;SDS011;11177;50.966;10.070;2023-04-08T10:08:37;12.13;;;8.80;;
22026;SDS011;11177;50.966;10.070;2023-04-08T10:11:04;11.68;;;8.25;;
22026;SDS011;11177;50.966;10.070;2023-04-08T10:13:31;12.13;;;7.78;;
22026;SDS011;11177;50.966;10.070;2023-04-08T10:18:53;12.60;;;7.67;;
22026;SDS011;11177;50.966;10.070;2023-04-08T10:24:19;12.73;;;8.05;;
22026;SDS011;11177;50.966;10.070;2023-04-08T10:26:51;12.70;;;7.55;;
22026;SDS011;11177;50.966;10.070;2023-04-08T10:32:04;12.88;;;7.75;;
22026;SDS011;11177;50.966;10.070;2023-04-08T10:34:31;11.48;;;7.18;;
22026;SDS011;11177;50.966;10.070;2023-04-08T10:36:58;9.20;;;6.55;;
22026;SDS011;11177;50.966;10.070;2023-04-08T10:39:27;10.52;;;6.88;;
22026;SDS011;11177;50.966;10.070;2023-04-08T10:41:54;9.88;;;7.15;;
22026;SDS011;11177;50.966;10.070;2023-04-08T10:44:22;9.00;;;6.85;;
22026;SDS011;11177;50.966;10.070;2023-04-08T10:46:50;17.08;;;9.68;;
22026;SDS011;11177;50.966;10.070;2023-04-08T10:49:18;11.38;;;7.03;;
22026;SDS011;11177;50.966;10.070;2023-04-08T10:51:45;9.05;;;6.70;;
22026;SDS011;11177;50.966;10.070;2023-04-08T10:54:13;9.00;;;7.07;;
22026;SDS011;11177;50.966;10.070;2023-04-08T10:56:45;10.35;;;6.65;;
22026;SDS011;11177;50.966;10.070;2023-04-08T10:59:17;11.60;;;7.45;;
22026;SDS011;11177;50.966;10.070;2023-04-08T11:01:52;10.20;;;7.07;;
22026;SDS011;11177;50.966;10.070;2023-04-08T11:04:19;10.75;;;7.28;;
22026;SDS011;11177;50.966;10.070;2023-04-08T11:06:49;12.60;;;8.32;;
22026;SDS011;11177;50.966;10.070;2023-04-08T11:09:19;9.95;;;7.32;;
22026;SDS011;11177;50.966;10.070;2023-04-08T11:11:46;11.20;;;8.10;;
22026;SDS011;11177;50.966;10.070;2023-04-08T11:14:13;9.35;;;6.90;;
22026;SDS011;11177;50.966;10.070;2023-04-08T11:16:42;11.07;;;7.65;;
22026;SDS011;11177;50.966;10.070;2023-04-08T11:19:09;11.02;;;7.05;;
22026;SDS011;11177;50.966;10.070;2023-04-08T11:21:39;10.63;;;7.68;;
22026;SDS011;11177;50.966;10.070;2023-04-08T11:24:09;11.30;;;7.82;;
22026;SDS011;11177;50.966;10.070;2023-04-08T11:26:37;11.73;;;7.78;;
22026;SDS011;11177;50.966;10.070;2023-04-08T11:29:05;12.10;;;7.72;;
22026;SDS011;11177;50.966;10.070;2023-04-08T11:31:34;11.23;;;7.82;;
22026;SDS011;11177;50.966;10.070;2023-04-08T11:34:01;10.85;;;7.68;;
22026;SDS011;11177;50.966;10.070;2023-04-08T11:36:28;11.95;;;8.23;;
22026;SDS011;11177;50.966;10.070;2023-04-08T11:38:55;12.07;;;8.30;;
22026;SDS011;11177;50.966;10.070;2023-04-08T11:41:22;11.98;;;7.82;;
22026;SDS011;11177;50.966;10.070;2023-04-08T11:43:49;12.63;;;8.60;;
22026;SDS011;11177;50.966;10.070;2023-04-08T11:46:17;11.27;;;8.00;;
22026;SDS011;11177;50.966;10.070;2023-04-08T11:48:58;9.65;;;6.88;;
22026;SDS011;11177;50.966;10.070;2023-04-08T11:51:29;11.40;;;7.93;;
22026;SDS011;11177;50.966;10.070;2023-04-08T11:53:56;11.27;;;7.47;;
22026;SDS011;11177;50.966;10.070;2023-04-08T11:56:23;11.02;;;7.90;;
22026;SDS011;11177;50.966;10.070;2023-04-08T11:58:51;10.63;;;7.85;;
22026;SDS011;11177;50.966;10.070;2023-04-08T12:01:18;14.35;;;7.90;;
22026;SDS011;11177;50.966;10.070;2023-04-08T12:03:58;9.02;;;6.82;;
22026;SDS011;11177;50.966;10.070;2023-04-08T12:06:27;8.77;;;6.65;;
22026;SDS011;11177;50.966;10.070;2023-04-08T12:08:54;10.10;;;6.80;;
22026;SDS011;11177;50.966;10.070;2023-04-08T12:11:22;9.23;;;6.93;;
22026;SDS011;11177;50.966;10.070;2023-04-08T12:13:50;9.65;;;6.85;;
22026;SDS011;11177;50.966;10.070;2023-04-08T12:16:18;10.68;;;7.70;;
22026;SDS011;11177;50.966;10.070;2023-04-08T12:18:46;10.73;;;7.60;;
22026;SDS011;11177;50.966;10.070;2023-04-08T12:21:13;11.13;;;7.47;;
22026;SDS011;11177;50.966;10.070;2023-04-08T12:23:40;20.80;;;12.05;;
22026;SDS011;11177;50.966;10.070;2023-04-08T12:26:08;14.75;;;9.77;;
22026;SDS011;11177;50.966;10.070;2023-04-08T12:28:35;19.40;;;11.43;;
22026;SDS011;11177;50.966;10.070;2023-04-08T12:31:03;14.25;;;9.13;;
22026;SDS011;11177;50.966;10.070;2023-04-08T12:33:33;37.08;;;16.77;;
22026;SDS011;11177;50.966;10.070;2023-04-08T12:36:00;23.67;;;12.63;;
22026;SDS011;11177;50.966;10.070;2023-04-08T12:38:27;32.50;;;15.68;;
22026;SDS011;11177;50.966;10.070;2023-04-08T12:40:54;13.70;;;8.82;;
22026;SDS011;11177;50.966;10.070;2023-04-08T12:43:21;9.75;;;6.93;;
22026;SDS011;11177;50.966;10.070;2023-04-08T12:45:49;16.00;;;8.95;;
22026;SDS011;11177;50.966;10.070;2023-04-08T12:48:16;10.63;;;6.82;;
22026;SDS011;11177;50.966;10.070;2023-04-08T12:50:43;11.68;;;6.95;;
22026;SDS011;11177;50.966;10.070;2023-04-08T12:53:10;8.23;;;6.13;;
22026;SDS011;11177;50.966;10.070;2023-04-08T12:55:36;7.40;;;5.43;;
22026;SDS011;11177;50.966;10.070;2023-04-08T12:58:03;9.30;;;5.70;;
22026;SDS011;11177;50.966;10.070;2023-04-08T13:00:31;8.35;;;5.60;;
22026;SDS011;11177;50.966;10.070;2023-04-08T13:02:58;7.15;;;5.60;;
22026;SDS011;11177;50.966;10.070;2023-04-08T13:05:25;10.55;;;7.55;;
22026;SDS011;11177;50.966;10.070;2023-04-08T13:08:08;12.38;;;7.75;;
22026;SDS011;11177;50.966;10.070;2023-04-08T13:10:35;15.85;;;9.48;;
22026;SDS011;11177;50.966;10.070;2023-04-08T13:13:02;9.07;;;6.55;;
22026;SDS011;11177;50.966;10.070;2023-04-08T13:15:29;11.63;;;7.82;;
22026;SDS011;11177;50.966;10.070;2023-04-08T13:17:55;7.75;;;5.57;;
22026;SDS011;11177;50.966;10.070;2023-04-08T13:20:22;9.73;;;6.07;;
22026;SDS011;11177;50.966;10.070;2023-04-08T13:22:51;9.13;;;6.82;;
22026;SDS011;11177;50.966;10.070;2023-04-08T13:25:18;6.15;;;5.05;;
22026;SDS011;11177;50.966;10.070;2023-04-08T13:27:45;6.00;;;4.93;;
22026;SDS011;11177;50.966;10.070;2023-04-08T13:30:12;7.82;;;5.95;;
22026;SDS011;11177;50.966;10.070;2023-04-08T13:32:39;5.97;;;4.68;;
22026;SDS011;11177;50.966;10.070;2023-04-08T13:35:07;7.20;;;5.28;;
22026;SDS011;11177;50.966;10.070;2023-04-08T13:37:34;7.82;;;5.00;;
22026;SDS011;11177;50.966;10.070;2023-04-08T13:40:01;6.82;;;5.00;;
22026;SDS011;11177;50.966;10.070;2023-04-08T13:42:28;7.93;;;5.72;;
22026;SDS011;11177;50.966;10.070;2023-04-08T13:44:56;7.10;;;5.40;;
22026;SDS011;11177;50.966;10.070;2023-04-08T13:47:23;7.88;;;5.55;;
22026;SDS011;11177;50.966;10.070;2023-04-08T13:49:50;7.80;;;5.30;;
22026;SDS011;11177;50.966;10.070;2023-04-08T13:52:17;8.00;;;5.60;;
22026;SDS011;11177;50.966;10.070;2023-04-08T13:54:44;8.57;;;5.93;;
22026;SDS011;11177;50.966;10.070;2023-04-08T13:57:11;9.88;;;5.97;;
22026;SDS011;11177;50.966;10.070;2023-04-08T13:59:38;9.40;;;5.90;;
22026;SDS011;11177;50.966;10.070;2023-04-08T14:02:07;8.82;;;5.72;;
22026;SDS011;11177;50.966;10.070;2023-04-08T14:04:34;8.75;;;6.18;;
22026;SDS011;11177;50.966;10.070;2023-04-08T14:07:01;12.65;;;6.75;;
22026;SDS011;11177;50.966;10.070;2023-04-08T14:09:28;8.27;;;5.88;;
22026;SDS011;11177;50.966;10.070;2023-04-08T14:11:55;8.68;;;6.05;;
22026;SDS011;11177;50.966;10.070;2023-04-08T14:14:22;14.50;;;9.27;;
22026;SDS011;11177;50.966;10.070;2023-04-08T14:16:49;18.70;;;10.30;;
22026;SDS011;11177;50.966;10.070;2023-04-08T14:19:16;10.98;;;7.35;;
22026;SDS011;11177;50.966;10.070;2023-04-08T14:21:43;16.05;;;9.07;;
22026;SDS011;11177;50.966;10.070;2023-04-08T14:24:10;14.48;;;9.68;;
22026;SDS011;11177;50.966;10.070;2023-04-08T14:26:37;14.32;;;8.70;;
22026;SDS011;11177;50.966;10.070;2023-04-08T14:29:04;12.90;;;8.60;;
22026;SDS011;11177;50.966;10.070;2023-04-08T14:31:32;15.55;;;10.38;;
22026;SDS011;11177;50.966;10.070;2023-04-08T14:34:03;13.77;;;9.07;;
22026;SDS011;11177;50.966;10.070;2023-04-08T14:36:30;13.35;;;8.98;;
22026;SDS011;11177;50.966;10.070;2023-04-08T14:38:57;20.25;;;12.30;;
22026;SDS011;11177;50.966;10.070;2023-04-08T14:41:24;12.88;;;8.27;;
22026;SDS011;11177;50.966;10.070;2023-04-08T14:43:54;18.10;;;11.90;;
22026;SDS011;11177;50.966;10.070;2023-04-08T14:46:21;25.42;;;16.80;;
22026;SDS011;11177;50.966;10.070;2023-04-08T14:48:48;17.67;;;11.40;;
22026;SDS011;11177;50.966;10.070;2023-04-08T14:51:15;13.55;;;9.50;;
22026;SDS011;11177;50.966;10.070;2023-04-08T14:53:43;14.32;;;9.60;;